createdAt,value
2023-02-13T00:00:22.298Z,6.77
2023-02-13T00:02:51.884Z,7.50
2023-02-13T00:05:24.072Z,8.77
2023-02-13T00:07:53.947Z,8.90
2023-02-13T00:10:23.640Z,10.20
2023-02-13T00:12:53.199Z,11.87
2023-02-13T00:15:22.705Z,10.07
2023-02-13T00:17:52.420Z,8.77
2023-02-13T00:20:24.800Z,9.57
2023-02-13T00:22:54.393Z,7.47
2023-02-13T00:25:23.959Z,8.53
2023-02-13T00:27:54.134Z,11.50
2023-02-13T00:30:24.535Z,12.03
2023-02-13T00:32:54.400Z,14.17
2023-02-13T00:35:29.296Z,18.13
2023-02-13T00:37:58.919Z,13.83
2023-02-13T00:40:28.490Z,15.43
2023-02-13T00:42:58.030Z,15.10
2023-02-13T00:45:28.422Z,13.60
2023-02-13T00:47:58.240Z,11.57
2023-02-13T00:50:30.407Z,15.67
2023-02-13T00:53:00.100Z,10.73
2023-02-13T00:55:29.592Z,12.63
2023-02-13T00:57:59.244Z,12.17
2023-02-13T01:00:28.776Z,11.47
2023-02-13T01:02:58.357Z,13.83
2023-02-13T01:05:30.525Z,12.00
2023-02-13T01:08:00.139Z,8.27
2023-02-13T01:10:29.705Z,11.43
2023-02-13T01:12:59.567Z,11.47
2023-02-13T01:15:29.476Z,9.23
2023-02-13T01:17:59.377Z,8.57
2023-02-13T01:20:32.449Z,12.57
2023-02-13T01:23:02.658Z,13.90
2023-02-13T01:25:32.128Z,10.00
2023-02-13T01:28:01.742Z,12.57
2023-02-13T01:30:31.347Z,9.30
2023-02-13T01:33:00.932Z,10.60
2023-02-13T01:35:33.091Z,9.03
2023-02-13T01:38:02.721Z,9.07
2023-02-13T01:40:32.661Z,9.40
2023-02-13T01:43:03.369Z,7.80
2023-02-13T01:45:33.852Z,10.77
2023-02-13T01:48:06.004Z,5.90
2023-02-13T01:50:40.480Z,6.23
2023-02-13T01:53:12.215Z,9.63
2023-02-13T01:55:45.427Z,7.50
2023-02-13T01:58:17.400Z,8.17
2023-02-13T02:00:50.222Z,9.33
2023-02-13T02:03:21.514Z,7.87
2023-02-13T02:05:55.671Z,7.20
2023-02-13T02:08:26.251Z,9.43
2023-02-13T02:10:57.199Z,10.33
2023-02-13T02:13:28.909Z,7.80
2023-02-13T02:16:04.436Z,8.03
2023-02-13T02:18:34.061Z,11.17
2023-02-13T02:21:21.589Z,8.43
2023-02-13T02:24:06.270Z,10.23
2023-02-13T02:26:50.654Z,8.37
2023-02-13T02:29:33.249Z,6.17
2023-02-13T02:32:24.391Z,13.27
2023-02-13T02:35:04.852Z,6.97
2023-02-13T02:37:40.329Z,6.57
2023-02-13T02:40:14.720Z,5.57
2023-02-13T02:42:51.448Z,6.47
2023-02-13T02:45:26.100Z,6.53
2023-02-13T02:48:11.926Z,7.80
2023-02-13T02:50:47.288Z,5.63
2023-02-13T02:53:20.883Z,5.50
2023-02-13T02:55:53.235Z,6.23
2023-02-13T02:58:36.743Z,8.57
2023-02-13T03:01:21.093Z,8.53
2023-02-13T03:04:04.840Z,8.27
2023-02-13T03:06:40.824Z,6.53
2023-02-13T03:09:26.241Z,7.67
2023-02-13T03:12:09.923Z,5.17
2023-02-13T03:14:40.104Z,7.10
2023-02-13T03:17:24.724Z,4.37
2023-02-13T03:20:11.225Z,4.37
2023-02-13T03:22:49.382Z,5.03
2023-02-13T03:25:34.424Z,3.67
2023-02-13T03:28:21.881Z,4.70
2023-02-13T03:30:58.268Z,6.50
2023-02-13T03:33:38.397Z,8.77
2023-02-13T03:36:31.647Z,6.67
2023-02-13T03:39:09.113Z,6.30
2023-02-13T03:41:41.837Z,13.37
2023-02-13T03:44:15.091Z,10.93
2023-02-13T03:46:45.663Z,3.77
2023-02-13T03:49:32.338Z,5.53
2023-02-13T03:52:03.455Z,6.30
2023-02-13T03:54:50.438Z,10.30
2023-02-13T03:57:34.789Z,8.00
2023-02-13T04:00:05.718Z,8.70
2023-02-13T04:02:46.940Z,10.57
2023-02-13T04:05:18.333Z,7.50
2023-02-13T04:07:48.153Z,7.93
2023-02-13T04:10:20.959Z,9.30
2023-02-13T04:12:54.252Z,7.63
2023-02-13T04:15:27.812Z,7.47
2023-02-13T04:17:59.558Z,8.03
2023-02-13T04:20:30.305Z,6.00
2023-02-13T04:22:59.828Z,5.60
2023-02-13T04:25:32.086Z,5.40
2023-02-13T04:28:01.751Z,5.90
2023-02-13T04:30:31.309Z,5.30
2023-02-13T04:33:00.883Z,4.33
2023-02-13T04:35:30.400Z,5.17
2023-02-13T04:37:59.960Z,4.60
2023-02-13T04:40:32.128Z,3.87
2023-02-13T04:43:01.652Z,4.47
2023-02-13T04:45:31.177Z,5.53
2023-02-13T04:48:00.803Z,2.70
2023-02-13T04:50:30.294Z,3.50
2023-02-13T04:53:00.589Z,4.00
2023-02-13T04:55:32.748Z,3.63
2023-02-13T04:58:02.404Z,2.97
2023-02-13T05:00:32.078Z,3.00
2023-02-13T05:03:06.962Z,2.83
2023-02-13T05:05:36.927Z,4.73
2023-02-13T05:08:06.955Z,2.90
2023-02-13T05:10:39.168Z,3.93
2023-02-13T05:13:09.046Z,3.00
2023-02-13T05:15:38.657Z,4.97
2023-02-13T05:18:08.242Z,4.70
2023-02-13T05:20:37.739Z,5.97
2023-02-13T05:23:19.950Z,7.07
2023-02-13T05:25:52.618Z,6.20
2023-02-13T05:28:34.836Z,8.90
2023-02-13T05:31:04.623Z,8.73
2023-02-13T05:33:34.214Z,10.67
2023-02-13T05:36:03.783Z,8.03
2023-02-13T05:38:33.375Z,7.07
2023-02-13T05:41:05.561Z,7.77
2023-02-13T05:43:35.127Z,7.00
2023-02-13T05:46:05.814Z,5.73
2023-02-13T05:48:35.506Z,6.60
2023-02-13T05:51:05.184Z,7.20
2023-02-13T05:53:35.541Z,7.43
2023-02-13T05:56:08.547Z,5.77
2023-02-13T05:58:38.166Z,7.10
2023-02-13T06:01:07.758Z,7.07
2023-02-13T06:03:37.354Z,9.67
2023-02-13T06:06:07.048Z,8.43
2023-02-13T06:08:36.496Z,9.93
2023-02-13T06:11:11.302Z,8.67
2023-02-13T06:13:40.957Z,6.07
2023-02-13T06:16:10.930Z,5.87
2023-02-13T06:18:40.753Z,6.13
2023-02-13T06:21:10.680Z,7.07
2023-02-13T06:23:43.088Z,9.33
2023-02-13T06:26:15.546Z,6.57
2023-02-13T06:28:45.202Z,6.53
2023-02-13T06:31:14.817Z,7.60
2023-02-13T06:33:44.355Z,7.27
2023-02-13T06:36:13.800Z,5.53
2023-02-13T06:38:43.292Z,7.97
2023-02-13T06:41:15.408Z,6.43
2023-02-13T06:43:44.962Z,7.63
2023-02-13T06:46:14.441Z,7.60
2023-02-13T06:48:43.928Z,6.60
2023-02-13T06:51:13.385Z,7.27
2023-02-13T06:53:42.931Z,5.80
2023-02-13T06:56:15.047Z,8.70
2023-02-13T06:58:45.950Z,7.50
2023-02-13T07:01:15.548Z,5.87
2023-02-13T07:03:45.620Z,6.63
2023-02-13T07:06:19.944Z,8.00
2023-02-13T07:08:51.526Z,8.63
2023-02-13T07:11:24.839Z,6.70
2023-02-13T07:13:54.325Z,7.87
2023-02-13T07:16:23.868Z,8.77
2023-02-13T07:18:53.414Z,8.97
2023-02-13T07:21:22.843Z,14.57
2023-02-13T07:23:52.276Z,8.93
2023-02-13T07:26:24.370Z,7.37
2023-02-13T07:29:09.264Z,7.83
2023-02-13T07:31:40.310Z,7.00
2023-02-13T07:34:09.862Z,9.10
2023-02-13T07:36:39.478Z,8.03
2023-02-13T07:39:09.020Z,9.00
2023-02-13T07:41:41.060Z,9.23
2023-02-13T07:44:10.720Z,9.07
2023-02-13T07:46:40.472Z,7.60
2023-02-13T07:49:10.105Z,7.03
2023-02-13T07:51:39.684Z,11.47
2023-02-13T07:54:09.283Z,9.40
2023-02-13T07:56:41.420Z,11.33
2023-02-13T07:59:10.999Z,8.20
2023-02-13T08:01:40.505Z,8.37
2023-02-13T08:04:10.338Z,10.63
2023-02-13T08:06:41.513Z,12.57
2023-02-13T08:09:29.295Z,9.57
2023-02-13T08:12:01.467Z,10.20
2023-02-13T08:14:31.227Z,7.60
2023-02-13T08:17:01.377Z,10.20
2023-02-13T08:19:31.245Z,7.17
2023-02-13T08:22:01.630Z,9.97
2023-02-13T08:24:31.241Z,12.70
2023-02-13T08:27:03.384Z,9.87
2023-02-13T08:29:34.955Z,10.60
2023-02-13T08:32:04.525Z,11.37
2023-02-13T08:34:34.091Z,10.73
2023-02-13T08:37:04.156Z,9.43
2023-02-13T08:39:33.665Z,13.03
2023-02-13T08:42:05.907Z,12.77
2023-02-13T08:44:35.529Z,9.20
2023-02-13T08:47:05.034Z,9.30
2023-02-13T08:49:34.623Z,9.27
2023-02-13T08:52:05.911Z,9.10
2023-02-13T08:54:36.956Z,12.87
2023-02-13T08:57:09.189Z,10.27
2023-02-13T08:59:38.785Z,9.40
2023-02-13T09:02:08.260Z,10.37
2023-02-13T09:04:37.934Z,8.03
2023-02-13T09:07:07.449Z,9.37
2023-02-13T09:09:37.163Z,9.47
2023-02-13T09:12:09.423Z,8.30
2023-02-13T09:14:39.390Z,8.90
2023-02-13T09:17:08.956Z,11.03
2023-02-13T09:19:38.543Z,9.53
2023-02-13T09:22:08.082Z,8.27
2023-02-13T09:24:37.567Z,9.53
2023-02-13T09:27:10.011Z,9.13
2023-02-13T09:29:39.559Z,8.93
2023-02-13T09:32:09.193Z,11.27
2023-02-13T09:34:38.871Z,9.60
2023-02-13T09:37:08.415Z,8.13
2023-02-13T09:39:38.012Z,8.40
2023-02-13T09:42:18.304Z,7.77
2023-02-13T09:44:49.053Z,7.20
2023-02-13T09:47:20.878Z,7.77
2023-02-13T09:49:53.419Z,6.77
2023-02-13T09:52:23.185Z,8.53
2023-02-13T09:54:52.710Z,7.83
2023-02-13T09:57:30.390Z,10.43
2023-02-13T10:00:01.356Z,8.15
2023-02-13T10:02:44.427Z,9.93
2023-02-13T10:05:22.130Z,9.30
2023-02-13T10:07:56.682Z,9.17
2023-02-13T10:10:31.084Z,7.80
2023-02-13T10:13:11.215Z,8.37
2023-02-13T10:15:42.205Z,6.83
2023-02-13T10:18:15.174Z,10.00
2023-02-13T10:20:46.416Z,11.27
2023-02-13T10:23:20.758Z,11.53
2023-02-13T10:25:52.652Z,8.30
2023-02-13T10:28:28.237Z,8.40
2023-02-13T10:30:59.365Z,9.00
2023-02-13T10:33:31.506Z,7.40
2023-02-13T10:36:03.656Z,7.73
2023-02-13T10:38:35.158Z,8.67
2023-02-13T10:41:11.315Z,9.63
2023-02-13T10:43:51.135Z,9.13
2023-02-13T10:46:25.314Z,7.87
2023-02-13T10:49:02.316Z,11.23
2023-02-13T10:51:36.100Z,8.98
2023-02-13T10:54:19.300Z,9.43
2023-02-13T10:56:51.383Z,8.68
2023-02-13T10:59:31.493Z,7.17
2023-02-13T11:02:05.031Z,10.13
2023-02-13T11:04:35.153Z,8.45
2023-02-13T11:07:06.120Z,13.55
2023-02-13T11:09:40.043Z,10.40
2023-02-13T11:12:24.591Z,9.88
2023-02-13T11:14:59.752Z,7.65
2023-02-13T11:17:30.152Z,8.90
2023-02-13T11:20:00.938Z,10.45
2023-02-13T11:22:32.730Z,7.15
2023-02-13T11:25:04.473Z,9.18
2023-02-13T11:27:35.664Z,10.23
2023-02-13T11:30:09.401Z,9.68
2023-02-13T11:32:38.932Z,8.18
2023-02-13T11:35:29.668Z,12.93
2023-02-13T11:38:14.621Z,8.23
2023-02-13T11:40:45.225Z,7.80
2023-02-13T11:43:20.514Z,6.30
2023-02-13T11:46:02.901Z,8.40
2023-02-13T11:48:32.492Z,8.45
2023-02-13T11:51:02.057Z,6.13
2023-02-13T11:53:33.360Z,6.18
2023-02-13T11:56:05.448Z,7.10
2023-02-13T11:58:35.215Z,5.78
2023-02-13T12:01:19.734Z,5.50
2023-02-13T12:03:59.984Z,6.70
2023-02-13T12:06:29.590Z,6.22
2023-02-13T12:08:59.064Z,8.07
2023-02-13T12:11:32.375Z,6.20
2023-02-13T12:14:03.045Z,6.32
2023-02-13T12:16:34.185Z,9.98
2023-02-13T12:19:07.766Z,7.07
2023-02-13T12:21:46.919Z,12.98
2023-02-13T12:24:21.395Z,12.45
2023-02-13T12:26:52.924Z,10.85
2023-02-13T12:29:32.626Z,10.68
2023-02-13T12:32:07.739Z,9.95
2023-02-13T12:34:55.005Z,13.18
2023-02-13T12:37:36.213Z,14.57
2023-02-13T12:40:17.086Z,10.40
2023-02-13T12:42:52.328Z,10.32
2023-02-13T12:45:31.923Z,12.02
2023-02-13T12:48:19.078Z,10.52
2023-02-13T12:50:59.731Z,12.15
2023-02-13T12:53:39.337Z,15.90
2023-02-13T12:56:26.083Z,14.15
2023-02-13T12:59:00.394Z,12.05
2023-02-13T13:01:39.809Z,12.15
2023-02-13T13:04:15.328Z,10.85
2023-02-13T13:06:53.682Z,8.45
2023-02-13T13:09:34.429Z,9.07
2023-02-13T13:12:10.764Z,8.70
2023-02-13T13:14:45.005Z,9.30
2023-02-13T13:17:19.190Z,11.38
2023-02-13T13:19:55.320Z,10.57
2023-02-13T13:22:28.097Z,6.80
2023-02-13T13:25:04.861Z,6.90
2023-02-13T13:27:36.005Z,6.57
2023-02-13T13:30:08.318Z,6.35
2023-02-13T13:32:39.381Z,5.65
2023-02-13T13:35:09.417Z,9.90
2023-02-13T13:37:41.399Z,6.88
2023-02-13T13:40:19.513Z,6.70
2023-02-13T13:42:52.282Z,7.63
2023-02-13T13:45:26.062Z,7.45
2023-02-13T13:48:03.448Z,7.00
2023-02-13T13:50:34.631Z,8.05
2023-02-13T13:53:14.830Z,6.70
2023-02-13T13:55:59.406Z,6.25
2023-02-13T13:58:35.177Z,7.22
2023-02-13T14:01:19.847Z,8.23
2023-02-13T14:03:49.781Z,6.43
2023-02-13T14:06:20.017Z,7.03
2023-02-13T14:09:07.581Z,5.95
2023-02-13T14:11:38.656Z,8.18
2023-02-13T14:14:23.196Z,6.88
2023-02-13T14:16:55.694Z,5.57
2023-02-13T14:19:29.918Z,7.07
2023-02-13T14:22:14.341Z,7.00
2023-02-13T14:24:44.311Z,6.22
2023-02-13T14:27:23.433Z,5.50
2023-02-13T14:29:53.378Z,7.70
2023-02-13T14:32:28.832Z,5.80
2023-02-13T14:35:00.563Z,5.97
2023-02-13T14:37:35.903Z,6.00
2023-02-13T14:40:20.492Z,7.20
2023-02-13T14:42:51.918Z,6.68
2023-02-13T14:45:23.594Z,8.52
2023-02-13T14:47:57.254Z,6.95
2023-02-13T14:50:27.788Z,7.28
2023-02-13T14:52:58.078Z,8.55
2023-02-13T14:55:34.104Z,12.40
2023-02-13T14:58:08.005Z,8.40
2023-02-13T15:00:40.795Z,7.38
2023-02-13T15:03:16.589Z,9.98
2023-02-13T15:05:51.752Z,8.32
2023-02-13T15:08:23.092Z,8.25
2023-02-13T15:10:53.460Z,7.28
2023-02-13T15:13:25.534Z,6.78
2023-02-13T15:15:56.420Z,7.35
2023-02-13T15:18:29.988Z,6.47
2023-02-13T15:21:01.287Z,7.05
2023-02-13T15:23:32.252Z,6.75
2023-02-13T15:26:02.751Z,6.85
2023-02-13T15:28:32.789Z,6.35
2023-02-13T15:31:03.345Z,6.82
2023-02-13T15:33:48.336Z,5.95
2023-02-13T15:36:19.743Z,8.40
2023-02-13T15:38:49.357Z,7.00
2023-02-13T15:41:21.531Z,7.25
2023-02-13T15:43:51.878Z,7.60
2023-02-13T15:46:23.311Z,6.78
2023-02-13T15:48:56.030Z,6.82
2023-02-13T15:51:27.228Z,7.32
2023-02-13T15:53:57.550Z,8.27
2023-02-13T15:56:27.136Z,9.35
2023-02-13T15:58:57.509Z,8.18
2023-02-13T16:01:27.330Z,9.60
2023-02-13T16:04:02.706Z,6.88
2023-02-13T16:06:32.557Z,9.27
2023-02-13T16:09:03.108Z,7.60
2023-02-13T16:11:33.746Z,7.85
2023-02-13T16:14:05.749Z,7.18
2023-02-13T16:16:37.256Z,7.57
2023-02-13T16:19:09.452Z,8.63
2023-02-13T16:21:39.024Z,8.80
2023-02-13T16:24:10.167Z,9.05
2023-02-13T16:26:42.595Z,8.50
2023-02-13T16:29:13.457Z,9.38
2023-02-13T16:37:25.921Z,7.68
2023-02-13T16:39:55.740Z,10.13
2023-02-13T16:42:25.355Z,11.40
2023-02-13T16:45:14.768Z,11.40
2023-02-13T16:47:44.427Z,9.70
2023-02-13T16:50:19.345Z,10.02
2023-02-13T16:52:49.105Z,10.95
2023-02-13T16:55:19.137Z,8.68
2023-02-13T16:57:48.642Z,11.90
2023-02-13T17:00:25.570Z,9.70
2023-02-13T17:02:55.320Z,8.77
2023-02-13T17:05:27.963Z,9.75
2023-02-13T17:08:01.357Z,10.82
2023-02-13T17:10:33.691Z,9.83
2023-02-13T17:13:04.324Z,9.23
2023-02-13T17:15:34.757Z,11.32
2023-02-13T17:18:04.301Z,8.65
2023-02-13T17:20:37.215Z,9.70
2023-02-13T17:23:08.730Z,12.32
2023-02-13T17:25:39.331Z,14.05
2023-02-13T17:28:13.661Z,11.13
2023-02-13T17:30:43.622Z,9.57
2023-02-13T17:33:15.220Z,8.93
2023-02-13T17:35:47.436Z,9.27
2023-02-13T17:38:17.009Z,15.00
2023-02-13T17:40:47.134Z,13.23
2023-02-13T17:43:24.260Z,10.80
2023-02-13T17:45:53.911Z,9.97
2023-02-13T17:48:24.169Z,11.10
2023-02-13T17:50:56.823Z,9.70
2023-02-13T18:07:29.152Z,13.80
2023-02-13T18:09:59.015Z,14.07
2023-02-13T18:12:28.549Z,11.47
2023-02-13T18:14:58.160Z,12.50
2023-02-13T18:17:27.797Z,11.27
2023-02-13T18:19:58.569Z,12.07
2023-02-13T18:22:31.552Z,13.80
2023-02-13T18:25:01.299Z,10.10
2023-02-13T18:27:30.997Z,13.87
2023-02-13T18:30:00.540Z,10.13
2023-02-13T18:32:30.062Z,14.60
2023-02-13T18:34:59.640Z,10.30
2023-02-13T18:37:33.628Z,10.43
2023-02-13T18:40:03.657Z,9.17
2023-02-13T18:42:33.187Z,11.13
2023-02-13T18:45:02.739Z,9.67
2023-02-13T18:47:32.270Z,10.63
2023-02-13T18:50:01.838Z,10.43
2023-02-13T18:52:33.984Z,10.97
2023-02-13T18:55:03.574Z,9.77
2023-02-13T18:57:33.119Z,9.50
2023-02-13T19:00:02.873Z,12.33
2023-02-13T19:02:33.550Z,9.23
2023-02-13T19:05:04.229Z,11.20
2023-02-13T19:07:36.859Z,8.77
2023-02-13T19:10:07.400Z,10.43
2023-02-13T19:12:36.943Z,11.50
2023-02-13T19:15:06.818Z,9.70
2023-02-13T19:17:37.015Z,12.70
2023-02-13T19:20:06.931Z,12.50
2023-02-13T19:22:39.159Z,10.60
2023-02-13T19:25:09.061Z,10.73
2023-02-13T19:27:39.647Z,9.43
2023-02-13T19:30:10.855Z,7.50
2023-02-13T19:32:40.678Z,7.80
2023-02-13T19:35:10.497Z,8.37
2023-02-13T19:37:44.417Z,9.47
2023-02-13T19:40:14.947Z,8.00
2023-02-13T19:42:44.527Z,9.30
2023-02-13T19:45:14.272Z,8.63
2023-02-13T19:47:43.972Z,9.67
2023-02-13T19:50:15.083Z,10.83
2023-02-13T19:52:47.286Z,14.83
2023-02-13T19:55:16.857Z,10.90
2023-02-13T19:57:46.360Z,12.13
2023-02-13T20:00:17.190Z,12.67
2023-02-13T20:02:46.927Z,9.60
2023-02-13T20:05:16.477Z,11.57
2023-02-13T20:07:48.807Z,11.40
2023-02-13T20:10:18.379Z,10.23
2023-02-13T20:12:53.788Z,13.77
2023-02-13T20:15:23.844Z,13.30
2023-02-13T20:17:53.792Z,16.17
2023-02-13T20:20:23.462Z,18.03
2023-02-13T20:22:55.645Z,18.37
2023-02-13T20:25:26.208Z,16.83
2023-02-13T20:27:55.746Z,13.40
2023-02-13T20:30:25.397Z,10.40
2023-02-13T20:32:55.117Z,16.60
2023-02-13T20:35:24.635Z,15.00
2023-02-13T20:37:58.988Z,16.40
2023-02-13T20:40:29.614Z,14.83
2023-02-13T20:42:59.167Z,14.07
2023-02-13T20:45:28.800Z,13.47
2023-02-13T20:47:58.428Z,14.63
2023-02-13T20:50:28.022Z,12.53
2023-02-13T20:53:00.228Z,12.90
2023-02-13T20:55:29.983Z,12.83
2023-02-13T20:57:59.524Z,9.80
2023-02-13T21:00:29.475Z,11.07
2023-02-13T21:02:59.102Z,12.80
2023-02-13T21:05:28.774Z,11.73
2023-02-13T21:08:01.582Z,14.10
2023-02-13T21:10:31.154Z,16.60
2023-02-13T21:13:00.648Z,16.33
2023-02-13T21:15:31.402Z,17.27
2023-02-13T21:18:01.843Z,16.40
2023-02-13T21:20:31.424Z,16.37
2023-02-13T21:23:05.446Z,15.87
2023-02-13T21:25:36.872Z,19.90
2023-02-13T21:28:06.532Z,15.83
2023-02-13T21:30:36.163Z,19.97
2023-02-13T21:33:05.732Z,19.13
2023-02-13T21:35:35.238Z,20.60
2023-02-13T21:38:07.445Z,19.57
2023-02-13T21:40:37.083Z,19.63
2023-02-13T21:43:06.607Z,23.07
2023-02-13T21:45:36.239Z,25.33
2023-02-13T21:48:05.766Z,27.77
2023-02-13T21:50:35.267Z,23.27
2023-02-13T21:53:07.431Z,27.50
2023-02-13T21:55:37.021Z,24.03
2023-02-13T21:58:06.637Z,22.97
2023-02-13T22:00:36.236Z,30.70
2023-02-13T22:03:05.876Z,25.90
2023-02-13T22:05:35.521Z,22.37
2023-02-13T22:08:13.834Z,22.00
2023-02-13T22:10:43.476Z,27.03
2023-02-13T22:13:13.000Z,24.37
2023-02-13T22:15:42.892Z,25.40
2023-02-13T22:18:12.437Z,25.53
2023-02-13T22:20:42.091Z,23.27
2023-02-13T22:23:14.363Z,24.13
2023-02-13T22:25:49.448Z,22.03
2023-02-13T22:28:19.008Z,24.10
2023-02-13T22:30:48.589Z,22.13
2023-02-13T22:33:18.170Z,27.20
2023-02-13T22:35:47.705Z,21.07
2023-02-13T22:38:19.841Z,24.97
2023-02-13T22:40:49.453Z,21.67
2023-02-13T22:43:18.970Z,22.13
2023-02-13T22:45:48.633Z,19.97
2023-02-13T22:48:18.220Z,21.13
2023-02-13T22:50:47.823Z,20.73
2023-02-13T22:53:20.053Z,26.87
2023-02-13T22:55:49.657Z,21.70
2023-02-13T22:58:19.137Z,18.53
2023-02-13T23:00:48.708Z,19.67
2023-02-13T23:03:18.435Z,19.30
2023-02-13T23:05:48.072Z,18.47
2023-02-13T23:08:21.186Z,17.73
2023-02-13T23:11:11.028Z,19.47
2023-02-13T23:13:38.043Z,21.60
2023-02-13T23:16:14.146Z,19.60
2023-02-13T23:18:41.463Z,20.53
2023-02-13T23:21:11.189Z,19.60
2023-02-13T23:23:43.389Z,19.93
2023-02-13T23:26:12.940Z,17.03
2023-02-13T23:28:42.721Z,22.07
2023-02-13T23:31:12.376Z,22.93
2023-02-13T23:33:42.136Z,20.07
2023-02-13T23:36:11.825Z,18.60
2023-02-13T23:38:44.934Z,18.33
2023-02-13T23:41:14.610Z,20.37
2023-02-13T23:43:44.097Z,20.13
2023-02-13T23:46:13.844Z,21.33
2023-02-13T23:48:43.441Z,20.73
2023-02-13T23:51:12.990Z,19.97
2023-02-13T23:53:45.214Z,16.83
2023-02-13T23:56:14.842Z,18.87
2023-02-13T23:58:44.395Z,17.87
